createdAt,value
2017-03-19T00:00:50.447Z,939.8
2017-03-19T00:01:58.534Z,939.8
2017-03-19T00:03:06.622Z,939.8
2017-03-19T00:04:14.714Z,939.8
2017-03-19T00:05:23.313Z,939.8
2017-03-19T00:06:30.884Z,939.7
2017-03-19T00:07:39.043Z,939.7
2017-03-19T00:08:47.066Z,939.7
2017-03-19T00:09:55.306Z,939.8
2017-03-19T00:11:03.303Z,939.8
2017-03-19T00:12:11.333Z,939.7
2017-03-19T00:13:19.445Z,939.7
2017-03-19T00:14:27.510Z,939.8
2017-03-19T00:15:35.602Z,939.7
2017-03-19T00:16:43.755Z,939.8
2017-03-19T00:17:51.786Z,939.7
2017-03-19T00:18:59.880Z,939.8
2017-03-19T00:20:08.141Z,939.7
2017-03-19T00:21:16.221Z,939.7
2017-03-19T00:22:24.655Z,939.7
2017-03-19T00:23:32.289Z,939.7
2017-03-19T00:24:40.323Z,939.7
2017-03-19T00:25:48.409Z,939.6
2017-03-19T00:26:56.497Z,939.7
2017-03-19T00:28:04.640Z,939.6
2017-03-19T00:29:12.677Z,939.6
2017-03-19T00:30:20.762Z,939.7
2017-03-19T00:31:29.015Z,939.6
2017-03-19T00:32:36.935Z,939.5
2017-03-19T00:33:45.081Z,939.5
2017-03-19T00:34:53.115Z,939.5
2017-03-19T00:36:01.209Z,939.5
2017-03-19T00:37:09.296Z,939.6
2017-03-19T00:38:17.385Z,939.6
2017-03-19T00:39:25.982Z,939.6
2017-03-19T00:40:33.565Z,939.6
2017-03-19T00:41:41.744Z,939.6
2017-03-19T00:42:49.839Z,939.6
2017-03-19T00:43:57.832Z,939.5
2017-03-19T00:45:05.975Z,939.6
2017-03-19T00:46:14.009Z,939.5
2017-03-19T00:47:22.101Z,939.5
2017-03-19T00:48:30.186Z,939.5
2017-03-19T00:49:38.272Z,939.5
2017-03-19T00:50:48.386Z,939.5
2017-03-19T00:51:54.448Z,939.5
2017-03-19T00:53:02.537Z,939.5
2017-03-19T00:54:10.628Z,939.5
2017-03-19T00:55:19.221Z,939.4
2017-03-19T00:56:26.858Z,939.5
2017-03-19T00:57:35.044Z,939.5
2017-03-19T00:58:42.988Z,939.4
2017-03-19T00:59:51.072Z,939.5
2017-03-19T01:00:59.158Z,939.4
2017-03-19T01:02:07.302Z,939.4
2017-03-19T01:03:15.334Z,939.4
2017-03-19T01:04:23.421Z,939.5
2017-03-19T01:05:31.509Z,939.4
2017-03-19T01:06:39.601Z,939.4
2017-03-19T01:07:48.251Z,939.4
2017-03-19T01:08:55.812Z,939.4
2017-03-19T01:10:03.868Z,939.4
2017-03-19T01:11:12.015Z,939.5
2017-03-19T01:12:20.048Z,939.4
2017-03-19T01:13:28.342Z,939.5
2017-03-19T01:14:36.224Z,939.4
2017-03-19T01:15:44.318Z,939.4
2017-03-19T01:16:52.406Z,939.3
2017-03-19T01:18:00.499Z,939.3
2017-03-19T01:19:09.147Z,939.4
2017-03-19T01:20:16.674Z,939.4
2017-03-19T01:21:24.763Z,939.4
2017-03-19T01:22:32.853Z,939.4
2017-03-19T01:23:41.447Z,939.4
2017-03-19T01:24:49.143Z,939.4
2017-03-19T01:25:57.129Z,939.4
2017-03-19T01:27:05.275Z,939.4
2017-03-19T01:28:13.308Z,939.4
2017-03-19T01:29:21.393Z,939.4
2017-03-19T01:30:29.989Z,939.3
2017-03-19T01:31:37.569Z,939.4
2017-03-19T01:32:45.657Z,939.4
2017-03-19T01:33:53.748Z,939.4
2017-03-19T01:35:01.950Z,939.3
2017-03-19T01:36:09.983Z,939.3
2017-03-19T01:37:18.013Z,939.3
2017-03-19T01:38:26.103Z,939.3
2017-03-19T01:39:34.193Z,939.3
2017-03-19T01:40:42.278Z,939.3
2017-03-19T01:41:50.427Z,939.2
2017-03-19T01:42:58.515Z,939.2
2017-03-19T01:44:06.546Z,939.2
2017-03-19T01:45:14.704Z,939.3
2017-03-19T01:46:22.783Z,939.3
2017-03-19T01:47:31.316Z,939.3
2017-03-19T01:48:38.900Z,939.3
2017-03-19T01:49:47.190Z,939.4
2017-03-19T01:50:55.258Z,939.4
2017-03-19T01:52:03.173Z,939.4
2017-03-19T01:53:11.323Z,939.4
2017-03-19T01:54:19.351Z,939.3
2017-03-19T01:55:27.440Z,939.3
2017-03-19T01:56:35.529Z,939.3
2017-03-19T01:57:43.656Z,939.3
2017-03-19T01:58:51.831Z,939.3
2017-03-19T01:59:59.796Z,939.4
2017-03-19T02:01:08.018Z,939.4
2017-03-19T02:02:15.977Z,939.4
2017-03-19T02:03:24.066Z,939.4
2017-03-19T02:04:32.654Z,939.4
2017-03-19T02:05:40.241Z,939.4
2017-03-19T02:06:48.360Z,939.3
2017-03-19T02:07:56.413Z,939.3
2017-03-19T02:09:04.508Z,939.3
2017-03-19T02:10:12.653Z,939.3
2017-03-19T02:11:20.718Z,939.3
2017-03-19T02:12:28.800Z,939.2
2017-03-19T02:13:36.862Z,939.2
2017-03-19T02:14:45.012Z,939.2
2017-03-19T02:15:53.546Z,939.2
2017-03-19T02:17:01.300Z,939.2
2017-03-19T02:18:09.217Z,939.2
2017-03-19T02:19:17.303Z,939.2
2017-03-19T02:20:25.394Z,939.2
2017-03-19T02:21:33.540Z,939.2
2017-03-19T02:22:41.574Z,939.2
2017-03-19T02:23:49.659Z,939.2
2017-03-19T02:24:57.753Z,939.2
2017-03-19T02:26:05.841Z,939.3
2017-03-19T02:27:14.076Z,939.3
2017-03-19T02:28:22.010Z,939.3
2017-03-19T02:29:30.100Z,939.2
2017-03-19T02:30:38.693Z,939.2
2017-03-19T02:31:46.277Z,939.2
2017-03-19T02:32:54.507Z,939.2
2017-03-19T02:34:02.457Z,939.3
2017-03-19T02:35:10.548Z,939.3
2017-03-19T02:36:18.636Z,939.3
2017-03-19T02:37:26.727Z,939.3
2017-03-19T02:38:34.870Z,939.3
2017-03-19T02:39:42.898Z,939.4
2017-03-19T02:40:50.990Z,939.4
2017-03-19T02:41:59.082Z,939.4
2017-03-19T02:43:07.244Z,939.4
2017-03-19T02:44:15.312Z,939.4
2017-03-19T02:45:23.346Z,939.4
2017-03-19T02:46:31.940Z,939.4
2017-03-19T02:47:39.519Z,939.4
2017-03-19T02:48:47.614Z,939.3
2017-03-19T02:49:55.757Z,939.3
2017-03-19T02:51:03.788Z,939.3
2017-03-19T02:52:11.874Z,939.3
2017-03-19T02:53:20.035Z,939.3
2017-03-19T02:54:28.102Z,939.2
2017-03-19T02:55:36.196Z,939.3
2017-03-19T02:56:44.235Z,939.3
2017-03-19T02:57:52.500Z,939.3
2017-03-19T02:59:00.469Z,939.3
2017-03-19T03:00:08.500Z,939.4
2017-03-19T03:01:17.093Z,939.4
2017-03-19T03:02:24.734Z,939.4
2017-03-19T03:03:32.760Z,939.4
2017-03-19T03:04:40.868Z,939.4
2017-03-19T03:05:48.940Z,939.4
2017-03-19T03:06:57.086Z,939.5
2017-03-19T03:08:05.159Z,939.4
2017-03-19T03:09:13.408Z,939.5
2017-03-19T03:10:21.301Z,939.4
2017-03-19T03:11:29.389Z,939.5
2017-03-19T03:12:37.537Z,939.5
2017-03-19T03:13:45.568Z,939.5
2017-03-19T03:14:53.666Z,939.5
2017-03-19T03:16:01.748Z,939.5
2017-03-19T03:17:09.846Z,939.5
2017-03-19T03:18:18.436Z,939.5
2017-03-19T03:19:26.041Z,939.5
2017-03-19T03:20:34.206Z,939.5
2017-03-19T03:21:42.206Z,939.5
2017-03-19T03:22:50.323Z,939.5
2017-03-19T03:23:58.452Z,939.5
2017-03-19T03:25:06.581Z,939.5
2017-03-19T03:26:14.571Z,939.5
2017-03-19T03:27:22.657Z,939.5
2017-03-19T03:28:30.752Z,939.5
2017-03-19T03:29:38.897Z,939.5
2017-03-19T03:30:46.938Z,939.5
2017-03-19T03:31:55.024Z,939.5
2017-03-19T03:33:03.113Z,939.5
2017-03-19T03:34:11.703Z,939.5
2017-03-19T03:35:19.457Z,939.5
2017-03-19T03:36:27.384Z,939.5
2017-03-19T03:37:35.474Z,939.5
2017-03-19T03:38:43.561Z,939.5
2017-03-19T03:39:51.649Z,939.5
2017-03-19T03:40:59.984Z,939.5
2017-03-19T03:42:07.827Z,939.5
2017-03-19T03:43:15.923Z,939.5
2017-03-19T03:44:24.019Z,939.5
2017-03-19T03:45:32.111Z,939.5
2017-03-19T03:46:40.254Z,939.5
2017-03-19T03:47:48.294Z,939.5
2017-03-19T03:48:56.382Z,939.5
2017-03-19T03:50:04.538Z,939.6
2017-03-19T03:51:12.560Z,939.6
2017-03-19T03:52:21.160Z,939.6
2017-03-19T03:53:28.741Z,939.6
2017-03-19T03:54:36.831Z,939.6
2017-03-19T03:55:44.919Z,939.6
2017-03-19T03:56:53.009Z,939.6
2017-03-19T03:58:01.159Z,939.6
2017-03-19T03:59:09.189Z,939.6
2017-03-19T04:00:17.287Z,939.6
2017-03-19T04:01:25.379Z,939.7
2017-03-19T04:02:33.467Z,939.7
2017-03-19T04:03:41.613Z,939.7
2017-03-19T04:04:49.649Z,939.7
2017-03-19T04:05:58.376Z,939.7
2017-03-19T04:07:05.958Z,939.7
2017-03-19T04:08:13.920Z,939.7
2017-03-19T04:09:22.067Z,939.7
2017-03-19T04:10:30.103Z,939.7
2017-03-19T04:11:38.192Z,939.7
2017-03-19T04:12:46.282Z,939.7
2017-03-19T04:13:54.370Z,939.7
2017-03-19T04:15:02.515Z,939.8
2017-03-19T04:16:10.547Z,939.7
2017-03-19T04:17:18.749Z,939.8
2017-03-19T04:18:26.727Z,939.7
2017-03-19T04:19:34.815Z,939.7
2017-03-19T04:20:42.963Z,939.8
2017-03-19T04:21:51.498Z,939.8
2017-03-19T04:22:59.084Z,939.7
2017-03-19T04:24:07.173Z,939.7
2017-03-19T04:25:15.259Z,939.7
2017-03-19T04:26:23.402Z,939.6
2017-03-19T04:27:31.444Z,939.6
2017-03-19T04:28:39.537Z,939.6
2017-03-19T04:29:47.625Z,939.5
2017-03-19T04:30:55.719Z,939.5
2017-03-19T04:32:03.870Z,939.6
2017-03-19T04:33:11.901Z,939.6
2017-03-19T04:34:20.006Z,939.6
2017-03-19T04:35:28.089Z,939.5
2017-03-19T04:36:36.178Z,939.5
2017-03-19T04:37:44.770Z,939.6
2017-03-19T04:38:52.443Z,939.6
2017-03-19T04:40:00.447Z,939.6
2017-03-19T04:41:08.535Z,939.6
2017-03-19T04:42:16.625Z,939.6
2017-03-19T04:43:24.768Z,939.6
2017-03-19T04:44:32.982Z,939.6
2017-03-19T04:45:40.890Z,939.6
2017-03-19T04:46:48.982Z,939.6
2017-03-19T04:47:57.071Z,939.6
2017-03-19T04:49:05.215Z,939.6
2017-03-19T04:50:13.264Z,939.6
2017-03-19T04:51:21.336Z,939.6
2017-03-19T04:52:29.429Z,939.6
2017-03-19T04:53:38.025Z,939.7
2017-03-19T04:54:45.801Z,939.7
2017-03-19T04:55:53.698Z,939.7
2017-03-19T04:57:01.788Z,939.8
2017-03-19T04:58:09.875Z,939.7
2017-03-19T04:59:17.969Z,939.8
2017-03-19T05:00:26.112Z,939.8
2017-03-19T05:01:34.144Z,939.8
2017-03-19T05:02:42.237Z,939.7
2017-03-19T05:03:50.324Z,939.7
2017-03-19T05:04:58.411Z,939.7
2017-03-19T05:06:07.006Z,939.7
2017-03-19T05:07:14.596Z,939.7
2017-03-19T05:08:22.683Z,939.7
2017-03-19T05:09:30.959Z,939.7
2017-03-19T05:10:38.974Z,939.7
2017-03-19T05:11:47.021Z,939.7
2017-03-19T05:12:55.053Z,939.7
2017-03-19T05:14:03.265Z,939.7
2017-03-19T05:15:11.430Z,939.6
2017-03-19T05:16:19.324Z,939.7
2017-03-19T05:17:27.466Z,939.6
2017-03-19T05:18:35.502Z,939.6
2017-03-19T05:19:43.590Z,939.6
2017-03-19T05:20:51.690Z,939.6
2017-03-19T05:21:59.768Z,939.6
2017-03-19T05:23:08.363Z,939.6
2017-03-19T05:24:15.947Z,939.6
2017-03-19T05:25:24.287Z,939.7
2017-03-19T05:26:32.136Z,939.7
2017-03-19T05:27:40.222Z,939.7
2017-03-19T05:28:48.363Z,939.7
2017-03-19T05:29:56.402Z,939.8
2017-03-19T05:31:04.523Z,939.7
2017-03-19T05:32:12.578Z,939.7
2017-03-19T05:33:20.667Z,939.7
2017-03-19T05:34:29.261Z,939.7
2017-03-19T05:35:36.844Z,939.7
2017-03-19T05:36:45.092Z,939.8
2017-03-19T05:37:53.021Z,939.8
2017-03-19T05:39:01.114Z,939.8
2017-03-19T05:40:09.707Z,939.8
2017-03-19T05:41:17.349Z,939.8
2017-03-19T05:42:25.382Z,939.8
2017-03-19T05:43:33.478Z,939.8
2017-03-19T05:44:41.560Z,939.8
2017-03-19T05:45:49.709Z,939.8
2017-03-19T05:46:57.836Z,939.8
2017-03-19T05:48:05.912Z,939.8
2017-03-19T05:49:13.920Z,939.7
2017-03-19T05:50:22.017Z,939.8
2017-03-19T05:51:30.614Z,939.8
2017-03-19T05:52:38.196Z,939.8
2017-03-19T05:53:46.293Z,939.7
2017-03-19T05:54:54.380Z,939.8
2017-03-19T05:56:02.465Z,939.7
2017-03-19T05:57:10.612Z,939.7
2017-03-19T05:58:18.704Z,939.7
2017-03-19T05:59:26.734Z,939.7
2017-03-19T06:00:34.822Z,939.8
2017-03-19T06:01:42.914Z,939.8
2017-03-19T06:02:51.670Z,939.9
2017-03-19T06:03:59.091Z,939.9
2017-03-19T06:05:07.181Z,939.9
2017-03-19T06:06:15.273Z,939.9
2017-03-19T06:07:23.366Z,939.9
2017-03-19T06:08:31.513Z,940.0
2017-03-19T06:09:39.553Z,940.0
2017-03-19T06:10:47.647Z,939.9
2017-03-19T06:11:55.741Z,940.0
2017-03-19T06:13:04.436Z,939.9
2017-03-19T06:14:12.071Z,939.8
2017-03-19T06:15:20.003Z,939.8
2017-03-19T06:16:28.104Z,939.8
2017-03-19T06:17:36.182Z,939.8
2017-03-19T06:18:44.269Z,939.8
2017-03-19T06:19:52.411Z,939.8
2017-03-19T06:21:00.445Z,939.8
2017-03-19T06:22:08.535Z,939.8
2017-03-19T06:23:16.623Z,939.8
2017-03-19T06:24:24.746Z,939.8
2017-03-19T06:25:33.310Z,939.7
2017-03-19T06:26:40.894Z,939.7
2017-03-19T06:27:48.981Z,939.8
2017-03-19T06:28:57.261Z,939.8
2017-03-19T06:30:05.176Z,939.9
2017-03-19T06:31:13.310Z,939.9
2017-03-19T06:32:21.347Z,939.9
2017-03-19T06:33:29.444Z,940.0
2017-03-19T06:34:38.176Z,940.0
2017-03-19T06:35:45.616Z,940.0
2017-03-19T06:36:53.831Z,940.0
2017-03-19T06:38:01.798Z,940.0
2017-03-19T06:39:09.883Z,940.0
2017-03-19T06:40:17.972Z,940.0
2017-03-19T06:41:26.063Z,940.0
2017-03-19T06:42:34.206Z,940.0
2017-03-19T06:43:42.233Z,940.0
2017-03-19T06:44:51.027Z,940.0
2017-03-19T06:45:58.411Z,940.0
2017-03-19T06:47:06.551Z,940.0
2017-03-19T06:48:14.647Z,940.0
2017-03-19T06:49:22.678Z,940.0
2017-03-19T06:50:30.878Z,940.0
2017-03-19T06:51:38.860Z,940.0
2017-03-19T06:52:46.948Z,940.0
2017-03-19T06:53:55.088Z,940.0
2017-03-19T06:55:03.277Z,940.0
2017-03-19T06:56:11.362Z,940.0
2017-03-19T06:57:19.296Z,940.1
2017-03-19T06:58:27.385Z,940.1
2017-03-19T06:59:35.975Z,940.1
2017-03-19T07:00:43.615Z,940.1
2017-03-19T07:01:51.645Z,940.1
2017-03-19T07:02:59.760Z,940.1
2017-03-19T07:04:07.820Z,940.1
2017-03-19T07:05:15.967Z,940.1
2017-03-19T07:06:24.122Z,940.1
2017-03-19T07:07:32.083Z,940.2
2017-03-19T07:08:40.177Z,940.1
2017-03-19T07:09:48.266Z,940.1
2017-03-19T07:10:56.402Z,940.1
2017-03-19T07:12:04.434Z,940.2
2017-03-19T07:13:12.528Z,940.1
2017-03-19T07:14:20.614Z,940.2
2017-03-19T07:15:28.702Z,940.2
2017-03-19T07:16:36.927Z,940.2
2017-03-19T07:17:44.934Z,940.2
2017-03-19T07:18:52.962Z,940.2
2017-03-19T07:20:01.238Z,940.2
2017-03-19T07:21:09.348Z,940.3
2017-03-19T07:22:17.928Z,940.3
2017-03-19T07:23:25.320Z,940.3
2017-03-19T07:24:33.412Z,940.2
2017-03-19T07:25:41.496Z,940.2
2017-03-19T07:26:49.590Z,940.2
2017-03-19T07:27:57.732Z,940.3
2017-03-19T07:29:05.764Z,940.4
2017-03-19T07:30:13.851Z,940.3
2017-03-19T07:31:21.953Z,940.3
2017-03-19T07:32:30.198Z,940.3
2017-03-19T07:33:38.167Z,940.3
2017-03-19T07:34:46.196Z,940.3
2017-03-19T07:35:54.286Z,940.3
2017-03-19T07:37:02.376Z,940.3
2017-03-19T07:38:10.461Z,940.3
2017-03-19T07:39:18.600Z,940.3
2017-03-19T07:40:26.637Z,940.2
2017-03-19T07:41:34.724Z,940.2
2017-03-19T07:42:43.204Z,940.3
2017-03-19T07:43:51.268Z,940.3
2017-03-19T07:44:59.487Z,940.3
2017-03-19T07:46:07.073Z,940.2
2017-03-19T07:47:15.165Z,940.2
2017-03-19T07:48:23.473Z,940.2
2017-03-19T07:49:31.348Z,940.2
2017-03-19T07:50:39.491Z,940.3
2017-03-19T07:51:47.521Z,940.3
2017-03-19T07:52:55.612Z,940.3
2017-03-19T07:54:03.705Z,940.3
2017-03-19T07:55:12.443Z,940.4
2017-03-19T07:56:19.935Z,940.4
2017-03-19T07:57:27.968Z,940.4
2017-03-19T07:58:36.103Z,940.4
2017-03-19T07:59:44.204Z,940.3
2017-03-19T08:00:52.230Z,940.3
2017-03-19T08:02:01.925Z,940.3
2017-03-19T08:03:08.931Z,940.3
2017-03-19T08:04:18.598Z,940.3
2017-03-19T08:05:24.573Z,940.4
2017-03-19T08:06:32.785Z,940.3
2017-03-19T08:07:40.805Z,940.3
2017-03-19T08:08:48.837Z,940.3
2017-03-19T08:09:57.002Z,940.3
2017-03-19T08:11:05.011Z,940.3
2017-03-19T08:12:13.099Z,940.4
2017-03-19T08:13:21.244Z,940.3
2017-03-19T08:14:29.272Z,940.2
2017-03-19T08:15:37.361Z,940.2
2017-03-19T08:16:45.705Z,940.2
2017-03-19T08:17:53.552Z,940.2
2017-03-19T08:19:01.674Z,940.2
2017-03-19T08:20:10.302Z,940.2
2017-03-19T08:21:17.863Z,940.2
2017-03-19T08:22:25.884Z,940.2
2017-03-19T08:23:34.056Z,940.2
2017-03-19T08:24:42.114Z,940.1
2017-03-19T08:25:50.150Z,940.1
2017-03-19T08:26:58.235Z,940.1
2017-03-19T08:28:06.325Z,940.1
2017-03-19T08:29:14.413Z,940.1
2017-03-19T08:30:22.552Z,940.1
2017-03-19T08:31:30.587Z,940.1
2017-03-19T08:32:38.675Z,940.1
2017-03-19T08:33:46.763Z,940.1
2017-03-19T08:34:54.847Z,940.1
2017-03-19T08:36:03.156Z,940.2
2017-03-19T08:37:11.023Z,940.1
2017-03-19T08:38:19.105Z,940.2
2017-03-19T08:39:27.213Z,940.2
2017-03-19T08:40:35.415Z,940.2
2017-03-19T08:41:43.423Z,940.3
2017-03-19T08:42:51.457Z,940.3
2017-03-19T08:43:59.542Z,940.2
2017-03-19T08:45:07.630Z,940.3
2017-03-19T08:46:15.845Z,940.3
2017-03-19T08:47:25.480Z,940.3
2017-03-19T08:48:32.383Z,940.3
2017-03-19T08:49:39.981Z,940.3
2017-03-19T08:50:48.067Z,940.2
2017-03-19T08:51:56.410Z,940.2
2017-03-19T08:53:04.306Z,940.2
2017-03-19T08:54:12.333Z,940.2
2017-03-19T08:55:20.420Z,940.2
2017-03-19T08:56:28.509Z,940.2
2017-03-19T08:57:36.595Z,940.3
2017-03-19T08:58:45.189Z,940.2
2017-03-19T08:59:52.770Z,940.2
2017-03-19T09:01:00.858Z,940.2
2017-03-19T09:02:09.090Z,940.1
2017-03-19T09:03:17.033Z,940.1
2017-03-19T09:04:25.183Z,940.1
2017-03-19T09:05:33.205Z,940.1
2017-03-19T09:06:41.296Z,940.0
2017-03-19T09:07:49.889Z,940.1
2017-03-19T09:08:57.469Z,940.1
2017-03-19T09:10:05.608Z,940.0
2017-03-19T09:11:13.643Z,940.0
2017-03-19T09:12:21.730Z,940.0
2017-03-19T09:13:29.879Z,940.0
2017-03-19T09:14:37.917Z,940.0
2017-03-19T09:15:46.048Z,940.0
2017-03-19T09:16:54.077Z,940.0
2017-03-19T09:18:02.347Z,940.0
2017-03-19T09:19:10.254Z,939.9
2017-03-19T09:20:18.341Z,940.0
2017-03-19T09:21:26.477Z,940.0
2017-03-19T09:22:34.513Z,939.9
2017-03-19T09:23:43.101Z,939.9
2017-03-19T09:24:50.683Z,939.9
2017-03-19T09:25:58.771Z,939.9
2017-03-19T09:27:06.921Z,939.9
2017-03-19T09:28:15.122Z,939.8
2017-03-19T09:29:23.220Z,939.8
2017-03-19T09:30:31.125Z,939.9
2017-03-19T09:31:39.220Z,939.9
2017-03-19T09:32:47.350Z,939.9
2017-03-19T09:33:55.381Z,939.9
2017-03-19T09:35:03.469Z,939.8
2017-03-19T09:36:11.557Z,939.9
2017-03-19T09:37:19.640Z,939.9
2017-03-19T09:38:27.787Z,939.9
2017-03-19T09:39:36.489Z,939.9
2017-03-19T09:40:43.900Z,939.9
2017-03-19T09:41:51.985Z,939.9
2017-03-19T09:43:00.075Z,939.8
2017-03-19T09:44:08.224Z,939.8
2017-03-19T09:45:16.307Z,939.8
2017-03-19T09:46:24.390Z,939.7
2017-03-19T09:47:32.431Z,939.7
2017-03-19T09:48:40.522Z,939.8
2017-03-19T09:49:49.305Z,939.7
2017-03-19T09:50:56.873Z,939.7
2017-03-19T09:52:04.785Z,939.7
2017-03-19T09:53:12.869Z,939.7
2017-03-19T09:54:20.955Z,939.7
2017-03-19T09:55:29.162Z,939.7
2017-03-19T09:56:37.154Z,939.7
2017-03-19T09:57:45.216Z,939.7
2017-03-19T09:58:53.302Z,939.6
2017-03-19T10:00:01.390Z,939.6
2017-03-19T10:01:10.040Z,939.6
2017-03-19T10:02:17.564Z,939.6
2017-03-19T10:03:25.648Z,939.6
2017-03-19T10:04:33.738Z,939.6
2017-03-19T10:05:41.822Z,939.6
2017-03-19T10:06:49.967Z,939.5
2017-03-19T10:07:57.992Z,939.5
2017-03-19T10:09:06.077Z,939.5
2017-03-19T10:10:14.167Z,939.5
2017-03-19T10:11:22.334Z,939.5
2017-03-19T10:12:30.947Z,939.5
2017-03-19T10:13:38.429Z,939.5
2017-03-19T10:14:46.524Z,939.5
2017-03-19T10:15:54.604Z,939.4
2017-03-19T10:17:02.690Z,939.5
2017-03-19T10:18:10.830Z,939.6
2017-03-19T10:19:18.870Z,939.5
2017-03-19T10:20:26.943Z,939.5
2017-03-19T10:21:35.033Z,939.5
2017-03-19T10:22:43.127Z,939.5
2017-03-19T10:23:51.714Z,939.6
2017-03-19T10:24:59.290Z,939.6
2017-03-19T10:26:07.378Z,939.6
2017-03-19T10:27:15.572Z,939.6
2017-03-19T10:28:23.687Z,939.6
2017-03-19T10:29:31.700Z,939.6
2017-03-19T10:30:39.729Z,939.6
2017-03-19T10:31:47.814Z,939.7
2017-03-19T10:32:55.901Z,939.6
2017-03-19T10:34:03.989Z,939.6
2017-03-19T10:35:12.580Z,939.6
2017-03-19T10:36:20.156Z,939.6
2017-03-19T10:37:28.249Z,939.6
2017-03-19T10:38:36.422Z,939.6
2017-03-19T10:39:44.421Z,939.5
2017-03-19T10:40:53.012Z,939.5
2017-03-19T10:42:00.595Z,939.5
2017-03-19T10:43:08.737Z,939.4
2017-03-19T10:44:16.765Z,939.4
2017-03-19T10:45:24.852Z,939.4
2017-03-19T10:46:32.997Z,939.4
2017-03-19T10:47:41.023Z,939.4
2017-03-19T10:48:49.252Z,939.4
2017-03-19T10:49:57.370Z,939.5
2017-03-19T10:51:05.291Z,939.5
2017-03-19T10:52:13.879Z,939.4
2017-03-19T10:53:21.468Z,939.4
2017-03-19T10:54:29.551Z,939.4
2017-03-19T10:55:37.631Z,939.5
2017-03-19T10:56:45.720Z,939.5
2017-03-19T10:57:53.903Z,939.5
2017-03-19T10:59:01.953Z,939.4
2017-03-19T11:00:10.127Z,939.4
2017-03-19T11:01:18.068Z,939.4
2017-03-19T11:02:26.156Z,939.4
2017-03-19T11:03:34.749Z,939.4
2017-03-19T11:04:42.329Z,939.4
2017-03-19T11:05:50.415Z,939.4
2017-03-19T11:06:58.504Z,939.4
2017-03-19T11:08:06.588Z,939.4
2017-03-19T11:09:14.734Z,939.3
2017-03-19T11:10:22.855Z,939.4
2017-03-19T11:11:30.910Z,939.3
2017-03-19T11:12:38.939Z,939.4
2017-03-19T11:13:47.029Z,939.3
2017-03-19T11:14:55.172Z,939.2
2017-03-19T11:16:03.196Z,939.2
2017-03-19T11:17:11.287Z,939.2
2017-03-19T11:18:19.374Z,939.3
2017-03-19T11:19:27.459Z,939.3
2017-03-19T11:20:35.600Z,939.3
2017-03-19T11:21:43.733Z,939.3
2017-03-19T11:22:51.719Z,939.3
2017-03-19T11:23:59.803Z,939.3
2017-03-19T11:25:07.895Z,939.3
2017-03-19T11:26:16.039Z,939.3
2017-03-19T11:27:24.066Z,939.3
2017-03-19T11:28:32.155Z,939.3
2017-03-19T11:29:40.243Z,939.4
2017-03-19T11:30:48.377Z,939.4
2017-03-19T11:31:56.463Z,939.3
2017-03-19T11:33:04.498Z,939.3
2017-03-19T11:34:12.585Z,939.3
2017-03-19T11:35:20.671Z,939.3
2017-03-19T11:36:28.760Z,939.3
2017-03-19T11:37:37.070Z,939.3
2017-03-19T11:38:44.932Z,939.3
2017-03-19T11:39:53.018Z,939.4
2017-03-19T11:41:01.109Z,939.3
2017-03-19T11:42:09.199Z,939.4
2017-03-19T11:43:17.787Z,939.4
2017-03-19T11:44:25.369Z,939.3
2017-03-19T11:45:33.458Z,939.3
2017-03-19T11:46:41.595Z,939.3
2017-03-19T11:47:49.707Z,939.3
2017-03-19T11:48:57.774Z,939.3
2017-03-19T11:50:05.803Z,939.2
2017-03-19T11:51:13.890Z,939.2
2017-03-19T11:52:21.976Z,939.2
2017-03-19T11:53:30.061Z,939.2
2017-03-19T11:54:38.652Z,939.2
2017-03-19T11:55:46.234Z,939.2
2017-03-19T11:56:54.324Z,939.2
2017-03-19T11:58:02.408Z,939.2
2017-03-19T11:59:10.493Z,939.1
2017-03-19T12:00:18.637Z,939.2
2017-03-19T12:01:26.665Z,939.1
2017-03-19T12:02:34.814Z,939.1
2017-03-19T12:03:43.024Z,939.1
2017-03-19T12:04:50.930Z,939.1
2017-03-19T12:05:59.071Z,939.0
2017-03-19T12:07:07.097Z,939.1
2017-03-19T12:08:15.181Z,939.1
2017-03-19T12:09:23.304Z,939.1
2017-03-19T12:10:31.375Z,939.2
2017-03-19T12:11:39.952Z,939.1
2017-03-19T12:12:47.539Z,939.1
2017-03-19T12:13:55.779Z,939.2
2017-03-19T12:15:03.845Z,939.1
2017-03-19T12:16:11.807Z,939.1
2017-03-19T12:17:19.947Z,939.1
2017-03-19T12:18:28.481Z,939.1
2017-03-19T12:19:36.066Z,939.1
2017-03-19T12:20:44.150Z,939.1
2017-03-19T12:21:52.244Z,939.1
2017-03-19T12:23:00.382Z,939.1
2017-03-19T12:24:08.414Z,939.1
2017-03-19T12:25:16.568Z,939.1
2017-03-19T12:26:24.587Z,939.2
2017-03-19T12:27:32.670Z,939.1
2017-03-19T12:28:41.266Z,939.1
2017-03-19T12:29:48.849Z,939.1
2017-03-19T12:30:56.932Z,939.1
2017-03-19T12:32:05.026Z,939.0
2017-03-19T12:33:13.112Z,939.1
2017-03-19T12:34:21.319Z,939.1
2017-03-19T12:35:29.412Z,939.1
2017-03-19T12:36:37.387Z,939.1
2017-03-19T12:37:45.464Z,939.0
2017-03-19T12:38:53.550Z,939.0
2017-03-19T12:40:02.296Z,939.0
2017-03-19T12:41:09.727Z,939.1
2017-03-19T12:42:17.814Z,939.0
2017-03-19T12:43:25.903Z,939.0
2017-03-19T12:44:33.991Z,939.0
2017-03-19T12:45:42.133Z,939.1
2017-03-19T12:46:50.232Z,939.1
2017-03-19T12:47:58.251Z,939.0
2017-03-19T12:49:06.342Z,939.0
2017-03-19T12:50:14.931Z,939.0
2017-03-19T12:51:22.575Z,939.0
2017-03-19T12:52:30.609Z,939.0
2017-03-19T12:53:38.697Z,939.0
2017-03-19T12:54:46.777Z,939.0
2017-03-19T12:55:54.868Z,939.0
2017-03-19T12:57:03.485Z,939.0
2017-03-19T12:58:11.045Z,939.0
2017-03-19T12:59:19.128Z,938.9
2017-03-19T13:00:27.220Z,938.9
2017-03-19T13:01:35.304Z,939.0
2017-03-19T13:02:43.483Z,939.0
2017-03-19T13:03:51.481Z,939.0
2017-03-19T13:04:59.570Z,939.0
2017-03-19T13:06:08.155Z,939.0
2017-03-19T13:07:15.743Z,939.0
2017-03-19T13:08:23.887Z,939.0
2017-03-19T13:09:31.913Z,938.9
2017-03-19T13:10:40.000Z,938.9
2017-03-19T13:11:48.093Z,939.0
2017-03-19T13:12:56.236Z,938.9
2017-03-19T13:14:04.367Z,938.9
2017-03-19T13:15:12.360Z,939.0
2017-03-19T13:16:20.475Z,939.0
2017-03-19T13:17:28.724Z,939.0
2017-03-19T13:18:36.806Z,939.0
2017-03-19T13:19:44.765Z,939.0
2017-03-19T13:20:52.792Z,939.0
2017-03-19T13:22:00.935Z,939.1
2017-03-19T13:23:08.971Z,939.0
2017-03-19T13:24:17.120Z,939.0
2017-03-19T13:25:25.198Z,939.1
2017-03-19T13:26:33.234Z,939.1
2017-03-19T13:27:41.320Z,939.0
2017-03-19T13:28:49.483Z,939.0
2017-03-19T13:29:57.494Z,939.1
2017-03-19T13:31:06.088Z,939.0
2017-03-19T13:32:13.668Z,939.0
2017-03-19T13:33:21.757Z,939.0
2017-03-19T13:34:29.869Z,939.1
2017-03-19T13:35:37.962Z,939.0
2017-03-19T13:36:46.073Z,939.0
2017-03-19T13:37:54.159Z,939.0
2017-03-19T13:39:02.198Z,939.0
2017-03-19T13:40:10.473Z,939.0
2017-03-19T13:41:18.375Z,939.0
2017-03-19T13:42:26.527Z,939.0
2017-03-19T13:43:34.559Z,939.0
2017-03-19T13:44:42.644Z,939.0
2017-03-19T13:45:50.732Z,939.1
2017-03-19T13:46:58.825Z,939.1
2017-03-19T13:48:06.972Z,939.0
2017-03-19T13:49:14.999Z,939.0
2017-03-19T13:50:23.278Z,939.0
2017-03-19T13:51:31.188Z,938.9
2017-03-19T13:52:39.265Z,938.9
2017-03-19T13:53:47.853Z,938.9
2017-03-19T13:54:55.454Z,938.9
2017-03-19T13:56:03.530Z,938.9
2017-03-19T13:57:11.618Z,938.8
2017-03-19T13:58:19.774Z,938.9
2017-03-19T13:59:28.101Z,938.9
2017-03-19T14:00:35.971Z,938.9
2017-03-19T14:01:44.041Z,938.9
2017-03-19T14:02:52.351Z,938.9
2017-03-19T14:04:00.159Z,938.9
2017-03-19T14:05:08.762Z,939.0
2017-03-19T14:06:16.341Z,939.0
2017-03-19T14:07:24.436Z,938.9
2017-03-19T14:08:32.515Z,939.0
2017-03-19T14:09:40.661Z,938.9
2017-03-19T14:10:49.202Z,939.0
2017-03-19T14:11:56.785Z,938.9
2017-03-19T14:13:04.875Z,939.0
2017-03-19T14:14:12.967Z,938.9
2017-03-19T14:15:21.070Z,939.0
2017-03-19T14:16:29.329Z,939.0
2017-03-19T14:17:37.239Z,939.0
2017-03-19T14:18:45.326Z,939.0
2017-03-19T14:19:53.411Z,938.9
2017-03-19T14:21:01.503Z,938.9
2017-03-19T14:22:09.649Z,938.9
2017-03-19T14:23:17.678Z,939.0
2017-03-19T14:24:25.770Z,939.0
2017-03-19T14:25:34.367Z,939.0
2017-03-19T14:26:41.966Z,939.0
2017-03-19T14:27:50.133Z,939.0
2017-03-19T14:28:58.140Z,939.0
2017-03-19T14:30:06.231Z,939.0
2017-03-19T14:31:14.831Z,939.0
2017-03-19T14:32:22.506Z,938.9
2017-03-19T14:33:30.549Z,938.9
2017-03-19T14:34:38.588Z,938.9
2017-03-19T14:35:46.670Z,938.9
2017-03-19T14:36:54.760Z,938.8